sensor_id;sensor_type;location;lat;lon;timestamp;pressure;altitude;pressure_sealevel;temperature;humidity
32851;BME280;19202;48.992;8.390;2022-10-16T00:03:06;100165.25;;;18.71;100.00
32851;BME280;19202;48.992;8.390;2022-10-16T00:08:44;100167.06;;;18.70;100.00
32851;BME280;19202;48.992;8.390;2022-10-16T00:14:23;100156.47;;;18.69;100.00
32851;BME280;19202;48.992;8.390;2022-10-16T00:20:01;100164.38;;;18.70;100.00
32851;BME280;19202;48.992;8.390;2022-10-16T00:25:39;100162.69;;;18.69;100.00
32851;BME280;19202;48.992;8.390;2022-10-16T00:31:19;100157.31;;;18.69;100.00
32851;BME280;19202;48.992;8.390;2022-10-16T00:36:57;100155.59;;;18.68;100.00
32851;BME280;19202;48.992;8.390;2022-10-16T00:42:35;100162.69;;;18.69;100.00
32851;BME280;19202;48.992;8.390;2022-10-16T00:48:13;100156.47;;;18.69;100.00
32851;BME280;19202;48.992;8.390;2022-10-16T00:53:52;100161.94;;;18.67;100.00
32851;BME280;19202;48.992;8.390;2022-10-16T00:59:36;100171.91;;;18.65;100.00
32851;BME280;19202;48.992;8.390;2022-10-16T01:05:15;100182.63;;;18.65;100.00
32851;BME280;19202;48.992;8.390;2022-10-16T01:11:24;100186.25;;;18.64;100.00
32851;BME280;19202;48.992;8.390;2022-10-16T01:17:10;100184.56;;;18.63;100.00
32851;BME280;19202;48.992;8.390;2022-10-16T01:28:51;100185.41;;;18.64;100.00
32851;BME280;19202;48.992;8.390;2022-10-16T01:34:35;100183.06;;;18.59;100.00
32851;BME280;19202;48.992;8.390;2022-10-16T01:40:16;100166.13;;;18.59;100.00
32851;BME280;19202;48.992;8.390;2022-10-16T01:45:57;100161.63;;;18.59;100.00
32851;BME280;19202;48.992;8.390;2022-10-16T01:51:37;100163.34;;;18.60;100.00
32851;BME280;19202;48.992;8.390;2022-10-16T01:57:15;100169.66;;;18.59;100.00
32851;BME280;19202;48.992;8.390;2022-10-16T02:02:54;100160.88;;;18.57;100.00
32851;BME280;19202;48.992;8.390;2022-10-16T02:08:34;100167.19;;;18.56;100.00
32851;BME280;19202;48.992;8.390;2022-10-16T02:14:12;100181.56;;;18.55;100.00
32851;BME280;19202;48.992;8.390;2022-10-16T02:19:52;100184.56;;;18.50;100.00
32851;BME280;19202;48.992;8.390;2022-10-16T02:25:34;100194.66;;;18.47;100.00
32851;BME280;19202;48.992;8.390;2022-10-16T02:31:18;100189.28;;;18.47;100.00
32851;BME280;19202;48.992;8.390;2022-10-16T02:37:01;100187.56;;;18.46;100.00
32851;BME280;19202;48.992;8.390;2022-10-16T02:42:40;100183.28;;;18.43;100.00
32851;BME280;19202;48.992;8.390;2022-10-16T02:48:19;100183.47;;;18.40;100.00
32851;BME280;19202;48.992;8.390;2022-10-16T02:53:56;100192.56;;;18.38;100.00
32851;BME280;19202;48.992;8.390;2022-10-16T02:59:34;100206.19;;;18.35;100.00
32851;BME280;19202;48.992;8.390;2022-10-16T03:05:12;100208.97;;;18.33;100.00
32851;BME280;19202;48.992;8.390;2022-10-16T03:10:51;100218.09;;;18.31;100.00
32851;BME280;19202;48.992;8.390;2022-10-16T03:16:29;100204.78;;;18.29;100.00
32851;BME280;19202;48.992;8.390;2022-10-16T03:22:07;100202.22;;;18.28;100.00
32851;BME280;19202;48.992;8.390;2022-10-16T03:27:44;100195.47;;;18.22;100.00
32851;BME280;19202;48.992;8.390;2022-10-16T03:33:22;100197.28;;;18.22;100.00
32851;BME280;19202;48.992;8.390;2022-10-16T03:39:00;100212.72;;;18.18;100.00
32851;BME280;19202;48.992;8.390;2022-10-16T03:44:38;100216.25;;;18.19;100.00
32851;BME280;19202;48.992;8.390;2022-10-16T03:50:16;100214.53;;;18.18;100.00
32851;BME280;19202;48.992;8.390;2022-10-16T03:55:55;100202.13;;;18.17;100.00
32851;BME280;19202;48.992;8.390;2022-10-16T04:01:33;100205.75;;;18.16;100.00
32851;BME280;19202;48.992;8.390;2022-10-16T04:07:10;100209.28;;;18.16;100.00
32851;BME280;19202;48.992;8.390;2022-10-16T04:12:48;100212.81;;;18.17;100.00
32851;BME280;19202;48.992;8.390;2022-10-16T04:18:26;100217.31;;;18.16;100.00
32851;BME280;19202;48.992;8.390;2022-10-16T04:24:05;100226.31;;;18.15;100.00
32851;BME280;19202;48.992;8.390;2022-10-16T04:29:42;100227.38;;;18.13;100.00
32851;BME280;19202;48.992;8.390;2022-10-16T04:35:21;100240.66;;;18.14;100.00
32851;BME280;19202;48.992;8.390;2022-10-16T04:40:59;100251.38;;;18.14;100.00
32851;BME280;19202;48.992;8.390;2022-10-16T04:46:37;100257.59;;;18.15;100.00
32851;BME280;19202;48.992;8.390;2022-10-16T04:52:15;100254.16;;;18.13;100.00
32851;BME280;19202;48.992;8.390;2022-10-16T04:57:53;100247.84;;;18.14;100.00
32851;BME280;19202;48.992;8.390;2022-10-16T05:03:31;100258.53;;;18.14;100.00
32851;BME280;19202;48.992;8.390;2022-10-16T05:09:09;100255.13;;;18.12;100.00
32851;BME280;19202;48.992;8.390;2022-10-16T05:14:47;100267.75;;;18.10;100.00
32851;BME280;19202;48.992;8.390;2022-10-16T05:20:25;100258.97;;;18.08;100.00
32851;BME280;19202;48.992;8.390;2022-10-16T05:26:03;100272.34;;;18.08;100.00
32851;BME280;19202;48.992;8.390;2022-10-16T05:31:41;100273.31;;;18.07;100.00
32851;BME280;19202;48.992;8.390;2022-10-16T05:37:19;100276.00;;;18.07;100.00
32851;BME280;19202;48.992;8.390;2022-10-16T05:42:57;100275.13;;;18.06;100.00
32851;BME280;19202;48.992;8.390;2022-10-16T05:48:35;100286.78;;;18.05;100.00
32851;BME280;19202;48.992;8.390;2022-10-16T05:54:13;100275.44;;;18.02;100.00
32851;BME280;19202;48.992;8.390;2022-10-16T05:59:51;100272.75;;;18.02;100.00
32851;BME280;19202;48.992;8.390;2022-10-16T06:05:29;100271.25;;;17.98;100.00
32851;BME280;19202;48.992;8.390;2022-10-16T06:11:10;100291.91;;;17.96;100.00
32851;BME280;19202;48.992;8.390;2022-10-16T06:16:48;100300.34;;;17.90;100.00
32851;BME280;19202;48.992;8.390;2022-10-16T06:22:26;100279.16;;;17.87;100.00
32851;BME280;19202;48.992;8.390;2022-10-16T06:28:04;100295.88;;;17.90;100.00
32851;BME280;19202;48.992;8.390;2022-10-16T06:33:42;100309.13;;;17.92;100.00
32851;BME280;19202;48.992;8.390;2022-10-16T06:39:21;100316.22;;;17.93;100.00
32851;BME280;19202;48.992;8.390;2022-10-16T06:44:59;100318.69;;;17.96;100.00
32851;BME280;19202;48.992;8.390;2022-10-16T06:50:36;100304.13;;;18.00;100.00
32851;BME280;19202;48.992;8.390;2022-10-16T06:56:25;100314.66;;;18.03;100.00
32851;BME280;19202;48.992;8.390;2022-10-16T07:02:03;100320.66;;;18.06;100.00
32851;BME280;19202;48.992;8.390;2022-10-16T07:07:41;100319.69;;;18.07;100.00
32851;BME280;19202;48.992;8.390;2022-10-16T07:13:19;100329.91;;;18.15;100.00
32851;BME280;19202;48.992;8.390;2022-10-16T07:18:59;100332.41;;;18.30;100.00
32851;BME280;19202;48.992;8.390;2022-10-16T07:24:37;100339.53;;;18.44;100.00
32851;BME280;19202;48.992;8.390;2022-10-16T07:30:15;100350.28;;;18.57;100.00
32851;BME280;19202;48.992;8.390;2022-10-16T07:35:53;100364.97;;;18.64;100.00
32851;BME280;19202;48.992;8.390;2022-10-16T07:41:32;100358.22;;;18.71;100.00
32851;BME280;19202;48.992;8.390;2022-10-16T07:47:10;100383.31;;;18.82;100.00
32851;BME280;19202;48.992;8.390;2022-10-16T07:52:47;100400.50;;;18.92;100.00
32851;BME280;19202;48.992;8.390;2022-10-16T07:58:29;100399.88;;;19.01;100.00
32851;BME280;19202;48.992;8.390;2022-10-16T08:04:08;100402.31;;;19.04;100.00
32851;BME280;19202;48.992;8.390;2022-10-16T08:09:49;100389.22;;;19.12;100.00
32851;BME280;19202;48.992;8.390;2022-10-16T08:49:15;100436.34;;;19.67;99.20
32851;BME280;19202;48.992;8.390;2022-10-16T08:54:54;100445.44;;;19.77;98.65
32851;BME280;19202;48.992;8.390;2022-10-16T09:00:32;100445.06;;;20.06;97.40
32851;BME280;19202;48.992;8.390;2022-10-16T09:12:31;100462.50;;;20.61;91.88
32851;BME280;19202;48.992;8.390;2022-10-16T09:18:37;100469.63;;;20.73;90.35
32851;BME280;19202;48.992;8.390;2022-10-16T09:24:21;100484.50;;;20.89;91.46
32851;BME280;19202;48.992;8.390;2022-10-16T09:30:13;100490.34;;;20.83;89.70
32851;BME280;19202;48.992;8.390;2022-10-16T09:35:53;100493.31;;;20.91;90.77
32851;BME280;19202;48.992;8.390;2022-10-16T09:41:34;100504.78;;;21.06;90.44
32851;BME280;19202;48.992;8.390;2022-10-16T09:47:20;100512.78;;;21.30;89.59
32851;BME280;19202;48.992;8.390;2022-10-16T09:53:17;100502.59;;;21.57;87.13
32851;BME280;19202;48.992;8.390;2022-10-16T09:59:03;100512.91;;;21.85;85.09
32851;BME280;19202;48.992;8.390;2022-10-16T10:04:51;100518.66;;;22.03;82.62
32851;BME280;19202;48.992;8.390;2022-10-16T10:10:34;100542.28;;;22.43;85.08
32851;BME280;19202;48.992;8.390;2022-10-16T10:16:23;100526.97;;;22.87;82.16
32851;BME280;19202;48.992;8.390;2022-10-16T10:22:01;100526.22;;;23.48;81.74
32851;BME280;19202;48.992;8.390;2022-10-16T10:39:28;100532.41;;;27.02;69.93
32851;BME280;19202;48.992;8.390;2022-10-16T10:51:07;100513.75;;;29.19;63.37
32851;BME280;19202;48.992;8.390;2022-10-16T10:56:56;100520.06;;;29.19;58.66
32851;BME280;19202;48.992;8.390;2022-10-16T11:02:48;100520.28;;;28.76;55.01
32851;BME280;19202;48.992;8.390;2022-10-16T11:08:35;100519.13;;;28.37;54.54
32851;BME280;19202;48.992;8.390;2022-10-16T11:14:28;100518.19;;;27.69;56.68
32851;BME280;19202;48.992;8.390;2022-10-16T11:20:18;100520.00;;;26.82;57.31
32851;BME280;19202;48.992;8.390;2022-10-16T11:26:02;100511.97;;;26.36;59.27
32851;BME280;19202;48.992;8.390;2022-10-16T11:31:47;100507.34;;;26.46;61.36
32851;BME280;19202;48.992;8.390;2022-10-16T11:37:33;100503.72;;;26.55;60.77
32851;BME280;19202;48.992;8.390;2022-10-16T11:49:18;100490.81;;;26.03;60.75
32851;BME280;19202;48.992;8.390;2022-10-16T11:55:27;100495.56;;;26.01;60.15
32851;BME280;19202;48.992;8.390;2022-10-16T12:06:51;100499.28;;;26.00;58.07
32851;BME280;19202;48.992;8.390;2022-10-16T12:18:22;100496.28;;;25.56;59.28
32851;BME280;19202;48.992;8.390;2022-10-16T12:24:02;100495.44;;;25.17;58.37
32851;BME280;19202;48.992;8.390;2022-10-16T12:29:44;100476.09;;;25.03;60.05
32851;BME280;19202;48.992;8.390;2022-10-16T12:35:28;100489.19;;;25.07;60.12
32851;BME280;19202;48.992;8.390;2022-10-16T13:09:42;100495.13;;;24.63;61.93
32851;BME280;19202;48.992;8.390;2022-10-16T13:15:47;100493.53;;;24.51;61.95
32851;BME280;19202;48.992;8.390;2022-10-16T13:21:37;100500.81;;;24.51;63.19
32851;BME280;19202;48.992;8.390;2022-10-16T13:44:51;100482.38;;;24.25;65.84
32851;BME280;19202;48.992;8.390;2022-10-16T13:50:30;100482.22;;;24.17;66.50
32851;BME280;19202;48.992;8.390;2022-10-16T13:56:14;100490.16;;;24.09;67.49
32851;BME280;19202;48.992;8.390;2022-10-16T14:01:53;100481.84;;;24.01;68.30
32851;BME280;19202;48.992;8.390;2022-10-16T14:07:34;100489.06;;;23.91;68.68
32851;BME280;19202;48.992;8.390;2022-10-16T14:13:16;100496.84;;;23.85;69.00
32851;BME280;19202;48.992;8.390;2022-10-16T14:19:03;100492.59;;;23.82;69.83
32851;BME280;19202;48.992;8.390;2022-10-16T14:24:43;100493.75;;;23.89;70.30
32851;BME280;19202;48.992;8.390;2022-10-16T14:30:22;100480.53;;;24.26;70.85
32851;BME280;19202;48.992;8.390;2022-10-16T14:41:49;100484.34;;;24.92;69.19
32851;BME280;19202;48.992;8.390;2022-10-16T14:47:27;100479.78;;;25.40;68.57
32851;BME280;19202;48.992;8.390;2022-10-16T14:53:12;100478.28;;;26.02;66.93
32851;BME280;19202;48.992;8.390;2022-10-16T14:58:51;100479.22;;;26.64;65.04
32851;BME280;19202;48.992;8.390;2022-10-16T15:04:29;100480.25;;;26.99;63.33
32851;BME280;19202;48.992;8.390;2022-10-16T15:10:07;100478.47;;;27.07;62.44
32851;BME280;19202;48.992;8.390;2022-10-16T15:15:47;100477.41;;;27.00;61.72
32851;BME280;19202;48.992;8.390;2022-10-16T15:21:29;100488.81;;;26.86;61.81
32851;BME280;19202;48.992;8.390;2022-10-16T15:27:07;100484.34;;;26.67;62.39
32851;BME280;19202;48.992;8.390;2022-10-16T15:32:45;100480.34;;;26.44;62.60
32851;BME280;19202;48.992;8.390;2022-10-16T15:38:24;100481.25;;;26.18;63.49
32851;BME280;19202;48.992;8.390;2022-10-16T15:44:02;100475.91;;;25.89;63.93
32851;BME280;19202;48.992;8.390;2022-10-16T15:49:40;100485.00;;;25.61;64.68
32851;BME280;19202;48.992;8.390;2022-10-16T15:55:18;100495.59;;;25.35;65.45
32851;BME280;19202;48.992;8.390;2022-10-16T16:00:57;100501.31;;;25.13;66.38
32851;BME280;19202;48.992;8.390;2022-10-16T16:06:35;100498.03;;;24.90;67.39
32851;BME280;19202;48.992;8.390;2022-10-16T16:12:14;100505.94;;;24.63;68.53
32851;BME280;19202;48.992;8.390;2022-10-16T16:17:52;100499.66;;;24.44;69.17
32851;BME280;19202;48.992;8.390;2022-10-16T16:23:30;100497.47;;;24.18;70.33
32851;BME280;19202;48.992;8.390;2022-10-16T16:29:13;100505.59;;;23.98;71.05
32851;BME280;19202;48.992;8.390;2022-10-16T16:34:52;100502.78;;;23.79;71.97
32851;BME280;19202;48.992;8.390;2022-10-16T16:40:30;100504.28;;;23.62;72.50
32851;BME280;19202;48.992;8.390;2022-10-16T16:46:08;100493.34;;;23.43;73.45
32851;BME280;19202;48.992;8.390;2022-10-16T16:51:46;100503.00;;;23.25;73.74
32851;BME280;19202;48.992;8.390;2022-10-16T16:57:24;100502.59;;;23.09;74.78
32851;BME280;19202;48.992;8.390;2022-10-16T17:03:01;100502.19;;;22.93;75.38
32851;BME280;19202;48.992;8.390;2022-10-16T17:08:40;100517.22;;;22.75;76.05
32851;BME280;19202;48.992;8.390;2022-10-16T17:14:18;100513.69;;;22.52;76.46
32851;BME280;19202;48.992;8.390;2022-10-16T17:19:55;100530.53;;;22.33;77.45
32851;BME280;19202;48.992;8.390;2022-10-16T17:25:40;100529.31;;;22.15;78.55
32851;BME280;19202;48.992;8.390;2022-10-16T17:31:20;100528.09;;;21.97;79.17
32851;BME280;19202;48.992;8.390;2022-10-16T17:36:58;100544.25;;;21.86;79.57
32851;BME280;19202;48.992;8.390;2022-10-16T17:42:36;100540.88;;;21.71;80.59
32851;BME280;19202;48.992;8.390;2022-10-16T17:48:13;100545.41;;;21.60;80.96
32851;BME280;19202;48.992;8.390;2022-10-16T17:53:55;100545.28;;;21.50;81.61
32851;BME280;19202;48.992;8.390;2022-10-16T17:59:33;100551.34;;;21.41;82.10
32851;BME280;19202;48.992;8.390;2022-10-16T18:05:11;100547.56;;;21.33;82.89
32851;BME280;19202;48.992;8.390;2022-10-16T18:10:49;100558.06;;;21.25;83.26
32851;BME280;19202;48.992;8.390;2022-10-16T18:16:28;100562.50;;;21.13;83.66
32851;BME280;19202;48.992;8.390;2022-10-16T18:22:07;100568.59;;;21.04;84.36
32851;BME280;19202;48.992;8.390;2022-10-16T18:27:45;100563.03;;;20.94;84.50
32851;BME280;19202;48.992;8.390;2022-10-16T18:33:24;100570.81;;;20.86;85.12
32851;BME280;19202;48.992;8.390;2022-10-16T18:39:05;100570.41;;;20.80;84.98
32851;BME280;19202;48.992;8.390;2022-10-16T18:44:48;100568.03;;;20.75;85.55
32851;BME280;19202;48.992;8.390;2022-10-16T18:50:26;100573.13;;;20.67;85.73
32851;BME280;19202;48.992;8.390;2022-10-16T18:56:05;100579.09;;;20.60;85.79
32851;BME280;19202;48.992;8.390;2022-10-16T19:01:43;100574.03;;;20.55;85.98
32851;BME280;19202;48.992;8.390;2022-10-16T19:07:22;100581.06;;;20.45;86.42
32851;BME280;19202;48.992;8.390;2022-10-16T19:12:59;100589.56;;;20.39;86.88
32851;BME280;19202;48.992;8.390;2022-10-16T19:18:38;100609.06;;;20.30;87.05
32851;BME280;19202;48.992;8.390;2022-10-16T19:24:16;100608.75;;;20.22;87.17
32851;BME280;19202;48.992;8.390;2022-10-16T19:29:54;100619.88;;;20.16;87.08
32851;BME280;19202;48.992;8.390;2022-10-16T19:35:33;100616.88;;;20.08;87.44
32851;BME280;19202;48.992;8.390;2022-10-16T19:41:13;100625.38;;;20.02;87.99
32851;BME280;19202;48.992;8.390;2022-10-16T19:46:52;100631.38;;;19.93;88.15
32851;BME280;19202;48.992;8.390;2022-10-16T19:52:30;100632.78;;;19.86;88.25
32851;BME280;19202;48.992;8.390;2022-10-16T19:58:08;100636.84;;;19.79;88.37
32851;BME280;19202;48.992;8.390;2022-10-16T20:03:47;100636.50;;;19.71;88.71
32851;BME280;19202;48.992;8.390;2022-10-16T20:09:25;100646.72;;;19.66;88.88
32851;BME280;19202;48.992;8.390;2022-10-16T20:15:04;100653.44;;;19.59;89.08
32851;BME280;19202;48.992;8.390;2022-10-16T20:20:44;100665.66;;;19.50;89.54
32851;BME280;19202;48.992;8.390;2022-10-16T20:26:23;100674.06;;;19.46;89.58
32851;BME280;19202;48.992;8.390;2022-10-16T20:32:02;100672.72;;;19.38;89.57
32851;BME280;19202;48.992;8.390;2022-10-16T20:37:40;100690.09;;;19.33;90.06
32851;BME280;19202;48.992;8.390;2022-10-16T20:43:21;100698.81;;;19.22;90.25
32851;BME280;19202;48.992;8.390;2022-10-16T20:48:59;100701.91;;;19.16;90.45
32851;BME280;19202;48.992;8.390;2022-10-16T20:54:37;100697.91;;;19.09;90.59
32851;BME280;19202;48.992;8.390;2022-10-16T21:00:14;100710.75;;;19.04;90.73
32851;BME280;19202;48.992;8.390;2022-10-16T21:05:52;100721.00;;;18.98;90.82
32851;BME280;19202;48.992;8.390;2022-10-16T21:11:33;100728.50;;;18.93;90.83
32851;BME280;19202;48.992;8.390;2022-10-16T21:17:11;100729.94;;;18.84;91.41
32851;BME280;19202;48.992;8.390;2022-10-16T21:22:49;100733.97;;;18.77;91.84
32851;BME280;19202;48.992;8.390;2022-10-16T21:28:30;100741.81;;;18.66;92.70
32851;BME280;19202;48.992;8.390;2022-10-16T21:34:08;100742.97;;;18.62;92.80
32851;BME280;19202;48.992;8.390;2022-10-16T21:39:46;100749.09;;;18.64;92.78
32851;BME280;19202;48.992;8.390;2022-10-16T21:45:24;100744.78;;;18.62;92.26
32851;BME280;19202;48.992;8.390;2022-10-16T21:51:01;100745.84;;;18.59;92.28
32851;BME280;19202;48.992;8.390;2022-10-16T21:56:40;100739.13;;;18.52;92.22
32851;BME280;19202;48.992;8.390;2022-10-16T22:02:18;100728.78;;;18.46;92.20
32851;BME280;19202;48.992;8.390;2022-10-16T22:07:55;100735.28;;;18.42;92.42
32851;BME280;19202;48.992;8.390;2022-10-16T22:13:33;100741.97;;;18.35;92.19
32851;BME280;19202;48.992;8.390;2022-10-16T22:19:13;100753.72;;;18.32;92.27
32851;BME280;19202;48.992;8.390;2022-10-16T22:24:51;100749.63;;;18.27;91.90
32851;BME280;19202;48.992;8.390;2022-10-16T22:30:29;100745.47;;;18.21;92.23
32851;BME280;19202;48.992;8.390;2022-10-16T22:36:09;100745.00;;;18.15;92.20
32851;BME280;19202;48.992;8.390;2022-10-16T22:41:48;100764.91;;;18.11;92.07
32851;BME280;19202;48.992;8.390;2022-10-16T22:47:26;100765.78;;;17.96;93.01
32851;BME280;19202;48.992;8.390;2022-10-16T22:53:03;100767.91;;;17.91;93.10
32851;BME280;19202;48.992;8.390;2022-10-16T22:58:42;100767.91;;;17.91;93.19
32851;BME280;19202;48.992;8.390;2022-10-16T23:04:20;100769.59;;;17.92;92.99
32851;BME280;19202;48.992;8.390;2022-10-16T23:09:58;100784.13;;;17.88;92.97
32851;BME280;19202;48.992;8.390;2022-10-16T23:15:40;100783.53;;;17.83;92.98
32851;BME280;19202;48.992;8.390;2022-10-16T23:21:21;100782.84;;;17.79;92.84
32851;BME280;19202;48.992;8.390;2022-10-16T23:27:00;100799.19;;;17.75;92.68
32851;BME280;19202;48.992;8.390;2022-10-16T23:32:39;100792.28;;;17.70;92.46
32851;BME280;19202;48.992;8.390;2022-10-16T23:38:17;100798.00;;;17.64;92.36
32851;BME280;19202;48.992;8.390;2022-10-16T23:43:55;100801.78;;;17.60;92.47
32851;BME280;19202;48.992;8.390;2022-10-16T23:49:33;100809.22;;;17.55;92.46
32851;BME280;19202;48.992;8.390;2022-10-16T23:55:11;100817.44;;;17.52;92.70
